Time;durP1;ratioP1;P1;durP2;ratioP2;P2;SDS_P1;SDS_P2;PMS_P1;PMS_P2;Temp;Humidity;BMP_temperature;BMP_pressure;BME280_temperature;BME280_humidity;BME280_pressure;Samples;Min_cycle;Max_cycle;Signal;HPM_P1;HPM_P2
2023/12/20 00:00:26;;;;;;;10.95;1.40;;;6.00;99.90;;;;;;6146906;23;20021;-35
2023/12/20 00:02:51;;;;;;;7.60;1.27;;;5.90;99.90;;;;;;6148543;23;20387;-35
2023/12/20 00:05:17;;;;;;;9.88;1.20;;;5.90;99.90;;;;;;6146738;23;20087;-35
2023/12/20 00:07:43;;;;;;;11.93;1.30;;;5.90;99.90;;;;;;6145742;23;20088;-35
2023/12/20 00:10:09;;;;;;;7.65;1.45;;;5.80;99.90;;;;;;6148526;23;20021;-35
2023/12/20 00:12:34;;;;;;;9.07;0.93;;;5.80;99.90;;;;;;6147325;23;20028;-34
2023/12/20 00:15:00;;;;;;;8.88;1.10;;;5.80;99.90;;;;;;6147724;23;20021;-35
2023/12/20 00:17:26;;;;;;;13.48;1.58;;;5.80;99.90;;;;;;6147241;23;20025;-35
2023/12/20 00:19:51;;;;;;;10.77;1.55;;;5.80;99.90;;;;;;6148232;23;20029;-35
2023/12/20 00:22:17;;;;;;;10.25;1.88;;;5.80;99.90;;;;;;6145285;23;20431;-35
2023/12/20 00:24:43;;;;;;;9.05;1.40;;;5.80;99.90;;;;;;6147243;23;20045;-35
2023/12/20 00:27:08;;;;;;;10.27;0.70;;;5.90;99.90;;;;;;6147614;23;20044;-34
2023/12/20 00:29:34;;;;;;;8.93;1.80;;;6.00;99.90;;;;;;6146722;23;20029;-34
2023/12/20 00:32:00;;;;;;;8.60;1.08;;;6.00;99.90;;;;;;6148961;23;20018;-35
2023/12/20 00:34:25;;;;;;;10.23;1.40;;;6.00;99.90;;;;;;6148228;23;20393;-34
2023/12/20 00:36:51;;;;;;;8.60;0.90;;;6.10;99.90;;;;;;6149754;23;20080;-35
2023/12/20 00:39:16;;;;;;;6.35;0.80;;;6.10;99.90;;;;;;6149152;23;20021;-35
2023/12/20 00:41:42;;;;;;;9.57;1.70;;;6.10;99.90;;;;;;6147236;23;20037;-34
2023/12/20 00:44:08;;;;;;;10.70;1.30;;;6.10;99.90;;;;;;6147266;23;20026;-36
2023/12/20 00:46:34;;;;;;;5.90;1.25;;;6.10;99.90;;;;;;6146955;23;20017;-35
2023/12/20 00:48:59;;;;;;;8.38;1.20;;;6.10;99.90;;;;;;6150113;23;20021;-34
2023/12/20 00:51:25;;;;;;;9.55;1.20;;;6.00;99.90;;;;;;6145914;23;20045;-36
2023/12/20 00:53:54;;;;;;;9.73;1.15;;;6.00;99.90;;;;;;6148216;23;20488;-35
2023/12/20 00:56:20;;;;;;;11.85;1.25;;;6.00;99.90;;;;;;6148337;23;20458;-34
2023/12/20 00:58:46;;;;;;;8.05;1.10;;;6.00;99.90;;;;;;6146207;23;20062;-35
2023/12/20 01:01:12;;;;;;;8.77;1.10;;;6.00;99.90;;;;;;6148020;23;20036;-35
2023/12/20 01:03:38;;;;;;;13.82;1.73;;;6.10;99.90;;;;;;6147034;23;20072;-35
2023/12/20 01:06:05;;;;;;;16.13;3.67;;;6.10;99.90;;;;;;6147816;23;20022;-34
2023/12/20 01:08:30;;;;;;;8.20;1.27;;;6.10;99.90;;;;;;6146972;23;20026;-34
2023/12/20 01:10:56;;;;;;;8.98;1.40;;;6.20;99.90;;;;;;6147222;23;20361;-36
2023/12/20 01:13:22;;;;;;;11.65;1.60;;;6.20;99.90;;;;;;6147758;23;20036;-35
2023/12/20 01:15:48;;;;;;;12.90;1.65;;;6.20;99.90;;;;;;6148330;23;20092;-35
2023/12/20 01:18:14;;;;;;;11.40;2.08;;;6.20;99.90;;;;;;6150578;23;20116;-34
2023/12/20 01:20:40;;;;;;;11.15;1.75;;;6.20;99.90;;;;;;6149220;23;20013;-34
2023/12/20 01:23:06;;;;;;;13.30;2.40;;;6.20;99.90;;;;;;6149477;23;20040;-35
2023/12/20 01:25:31;;;;;;;10.45;1.65;;;6.20;99.90;;;;;;6149418;23;20115;-35
2023/12/20 01:27:57;;;;;;;11.48;1.70;;;6.10;99.90;;;;;;6148595;23;20064;-35
2023/12/20 01:30:24;;;;;;;10.77;1.35;;;6.10;99.90;;;;;;6150627;23;20396;-36
2023/12/20 01:32:49;;;;;;;9.68;1.25;;;6.10;99.90;;;;;;6148409;23;20438;-35
2023/12/20 01:35:15;;;;;;;8.60;1.13;;;6.10;99.90;;;;;;6149851;23;20049;-36
2023/12/20 01:37:41;;;;;;;9.82;1.30;;;6.10;99.90;;;;;;6149913;23;20017;-35
2023/12/20 01:40:07;;;;;;;11.20;1.73;;;6.10;99.90;;;;;;6150134;23;20556;-35
2023/12/20 01:42:33;;;;;;;12.93;1.48;;;6.10;99.90;;;;;;6149212;23;20037;-35
2023/12/20 01:44:59;;;;;;;10.25;1.23;;;6.20;99.90;;;;;;6147609;23;20029;-36
2023/12/20 01:47:26;;;;;;;10.90;1.50;;;6.20;99.90;;;;;;6172893;23;20524;-36
2023/12/20 01:49:52;;;;;;;12.93;1.30;;;6.20;99.90;;;;;;6149359;23;20044;-34
2023/12/20 01:52:19;;;;;;;9.48;1.20;;;6.20;99.90;;;;;;6149267;23;20022;-34
2023/12/20 01:54:46;;;;;;;14.85;2.60;;;6.20;99.90;;;;;;6150193;23;20025;-35
2023/12/20 01:57:13;;;;;;;11.48;1.63;;;6.20;99.90;;;;;;6147908;23;20026;-34
2023/12/20 01:59:40;;;;;;;10.10;1.27;;;6.20;99.90;;;;;;6149853;23;20045;-35
2023/12/20 02:02:07;;;;;;;11.93;1.35;;;6.20;99.90;;;;;;6147788;23;20021;-35
2023/12/20 02:04:33;;;;;;;6.05;0.80;;;6.20;99.90;;;;;;6149137;23;20029;-34
2023/12/20 02:06:59;;;;;;;5.72;1.70;;;6.10;99.90;;;;;;6146399;23;20022;-34
2023/12/20 02:09:25;;;;;;;5.63;0.93;;;6.10;99.90;;;;;;6150257;23;20022;-35
2023/12/20 02:11:51;;;;;;;7.95;1.25;;;6.00;99.90;;;;;;6148029;23;20021;-35
2023/12/20 02:14:16;;;;;;;12.52;2.30;;;6.00;99.90;;;;;;6146521;23;20014;-34
2023/12/20 02:16:42;;;;;;;9.98;1.70;;;6.00;99.90;;;;;;6148572;23;20365;-34
2023/12/20 02:19:14;;;;;;;11.02;2.13;;;6.10;99.90;;;;;;6148349;23;20357;-35
2023/12/20 02:21:39;;;;;;;11.27;1.60;;;6.20;99.90;;;;;;6148339;23;20457;-35
2023/12/20 02:24:05;;;;;;;11.85;2.03;;;6.20;99.90;;;;;;6150306;23;20029;-35
2023/12/20 02:26:33;;;;;;;17.08;2.33;;;6.20;99.90;;;;;;6148521;23;20488;-35
2023/12/20 02:28:59;;;;;;;13.98;2.05;;;6.20;99.90;;;;;;6148993;23;20516;-35
2023/12/20 02:31:25;;;;;;;14.65;2.05;;;6.20;99.90;;;;;;6148447;23;20013;-34
2023/12/20 02:33:51;;;;;;;7.30;1.58;;;6.20;99.90;;;;;;6148036;23;20076;-35
2023/12/20 02:36:16;;;;;;;14.40;2.28;;;6.10;99.90;;;;;;6147903;23;20021;-42
2023/12/20 02:38:42;;;;;;;16.58;2.00;;;6.10;99.90;;;;;;6148198;23;20022;-35
2023/12/20 02:41:08;;;;;;;14.10;1.90;;;6.20;99.90;;;;;;6147902;23;20017;-35
2023/12/20 02:43:33;;;;;;;12.02;1.73;;;6.20;99.90;;;;;;6147586;23;20017;-35
2023/12/20 02:45:59;;;;;;;10.48;2.08;;;6.20;99.90;;;;;;6147309;23;20029;-36
2023/12/20 02:48:24;;;;;;;15.70;3.47;;;6.20;99.90;;;;;;6149173;23;20029;-34
2023/12/20 02:50:51;;;;;;;18.90;2.63;;;6.20;99.90;;;;;;6148426;23;20029;-34
2023/12/20 02:53:16;;;;;;;14.75;2.28;;;6.30;99.90;;;;;;6148351;23;20330;-36
2023/12/20 02:55:42;;;;;;;17.15;2.33;;;6.30;99.90;;;;;;6148468;23;20088;-34
2023/12/20 02:58:08;;;;;;;11.73;2.20;;;6.40;99.90;;;;;;6149278;23;20068;-36
2023/12/20 03:00:34;;;;;;;15.48;2.45;;;6.40;99.90;;;;;;6147820;23;20028;-34
2023/12/20 03:02:59;;;;;;;17.23;2.55;;;6.40;99.90;;;;;;6149127;23;20449;-35
2023/12/20 03:05:25;;;;;;;17.48;2.83;;;6.50;99.90;;;;;;6150554;23;20026;-35
2023/12/20 03:07:51;;;;;;;12.60;2.17;;;6.50;99.90;;;;;;6149253;23;20017;-34
2023/12/20 03:10:18;;;;;;;16.42;3.00;;;6.50;99.90;;;;;;6148426;23;20033;-34
2023/12/20 03:12:44;;;;;;;17.77;2.92;;;6.60;99.90;;;;;;6147286;23;20021;-34
2023/12/20 03:15:10;;;;;;;15.30;2.40;;;6.60;99.90;;;;;;6150150;23;20022;-35
2023/12/20 03:17:35;;;;;;;16.88;2.10;;;6.60;99.90;;;;;;6147113;23;20450;-35
2023/12/20 03:20:01;;;;;;;23.05;3.35;;;6.60;99.90;;;;;;6147890;23;20025;-35
2023/12/20 03:22:27;;;;;;;17.73;2.55;;;6.60;99.90;;;;;;6148697;23;20021;-34
2023/12/20 03:24:53;;;;;;;14.70;2.00;;;6.50;99.90;;;;;;6147636;23;20472;-35
2023/12/20 03:27:18;;;;;;;12.30;2.40;;;6.50;99.90;;;;;;6148071;23;20453;-34
2023/12/20 03:29:44;;;;;;;16.45;2.45;;;6.50;99.90;;;;;;6146940;23;20083;-35
2023/12/20 03:32:09;;;;;;;14.00;2.17;;;6.50;99.90;;;;;;6148895;23;20068;-34
2023/12/20 03:34:35;;;;;;;17.80;2.38;;;6.50;99.90;;;;;;6149091;23;20092;-34
2023/12/20 03:37:01;;;;;;;17.10;2.08;;;6.60;99.90;;;;;;6145566;23;20025;-35
2023/12/20 03:39:26;;;;;;;22.50;2.58;;;6.60;99.90;;;;;;6148938;23;20131;-35
2023/12/20 03:41:52;;;;;;;16.50;2.42;;;6.60;99.90;;;;;;6147145;23;20030;-34
2023/12/20 03:44:18;;;;;;;19.67;2.83;;;6.70;99.90;;;;;;6147709;23;20028;-34
2023/12/20 03:46:45;;;;;;;18.15;2.70;;;6.70;99.90;;;;;;6147151;23;20013;-35
2023/12/20 03:49:11;;;;;;;13.77;2.00;;;6.80;99.90;;;;;;6148613;23;20036;-35
2023/12/20 03:51:37;;;;;;;17.92;2.05;;;6.80;99.90;;;;;;6147037;23;20021;-36
2023/12/20 03:54:03;;;;;;;17.65;2.67;;;6.90;99.90;;;;;;6147770;23;20016;-35
2023/12/20 03:56:28;;;;;;;15.80;2.70;;;6.80;99.90;;;;;;6146623;23;20018;-35
2023/12/20 03:58:54;;;;;;;16.58;2.33;;;6.80;99.90;;;;;;6147371;23;20289;-34
2023/12/20 04:01:19;;;;;;;17.67;3.13;;;6.70;99.90;;;;;;6148830;23;20072;-35
2023/12/20 04:03:45;;;;;;;11.15;2.03;;;6.70;99.90;;;;;;6146551;23;20412;-35
2023/12/20 04:06:17;;;;;;;14.05;2.65;;;6.60;99.90;;;;;;6147680;23;20032;-34
2023/12/20 04:08:42;;;;;;;11.17;2.20;;;6.60;99.90;;;;;;6147184;23;20095;-34
2023/12/20 04:11:08;;;;;;;17.60;2.63;;;6.50;99.90;;;;;;6147839;23;20025;-35
2023/12/20 04:13:33;;;;;;;13.18;2.58;;;6.50;99.90;;;;;;6148383;23;20022;-35
2023/12/20 04:15:59;;;;;;;16.92;3.08;;;6.50;99.90;;;;;;6146272;23;20416;-35
2023/12/20 04:18:25;;;;;;;12.20;2.17;;;6.50;99.90;;;;;;6147937;23;20027;-34
2023/12/20 04:20:51;;;;;;;13.77;2.40;;;6.50;99.90;;;;;;6146625;23;20029;-34
2023/12/20 04:23:17;;;;;;;18.02;2.58;;;6.50;99.90;;;;;;6149636;23;20021;-35
2023/12/20 04:25:43;;;;;;;17.00;2.58;;;6.50;99.90;;;;;;6147406;23;20056;-35
2023/12/20 04:28:08;;;;;;;14.88;2.33;;;6.50;99.90;;;;;;6149345;23;20041;-35
2023/12/20 04:30:35;;;;;;;11.43;2.03;;;6.50;99.90;;;;;;6148814;23;20029;-35
2023/12/20 04:33:00;;;;;;;16.63;2.08;;;6.50;99.90;;;;;;6145268;23;20017;-34
2023/12/20 04:35:26;;;;;;;17.35;2.47;;;6.60;99.90;;;;;;6145330;23;20101;-34
2023/12/20 04:37:52;;;;;;;21.42;3.25;;;6.60;99.90;;;;;;6147220;23;20057;-35
2023/12/20 04:40:17;;;;;;;17.77;2.25;;;6.70;99.90;;;;;;6148144;23;20021;-35
2023/12/20 04:42:43;;;;;;;15.45;2.35;;;6.70;99.90;;;;;;6148416;23;20346;-35
2023/12/20 04:45:09;;;;;;;18.25;2.53;;;6.70;99.90;;;;;;6148171;23;20026;-36
2023/12/20 04:47:34;;;;;;;15.27;2.90;;;6.80;99.90;;;;;;6150208;23;20024;-35
2023/12/20 04:50:00;;;;;;;13.43;2.22;;;6.80;99.90;;;;;;6149128;23;20465;-35
2023/12/20 04:52:26;;;;;;;16.60;2.80;;;6.80;99.90;;;;;;6149249;23;20075;-35
2023/12/20 04:54:51;;;;;;;16.15;1.95;;;6.80;99.90;;;;;;6147561;23;20029;-35
2023/12/20 04:57:17;;;;;;;15.85;2.13;;;6.90;99.90;;;;;;6148135;23;20484;-35
2023/12/20 04:59:43;;;;;;;16.73;2.47;;;6.90;99.90;;;;;;6148119;23;20030;-35
2023/12/20 05:02:09;;;;;;;22.67;2.58;;;6.80;99.90;;;;;;6146301;23;20033;-35
2023/12/20 05:04:34;;;;;;;18.48;3.13;;;6.90;99.90;;;;;;6147314;23;20029;-35
2023/12/20 05:07:00;;;;;;;12.75;1.75;;;6.80;99.90;;;;;;6147255;23;20022;-36
2023/12/20 05:09:26;;;;;;;11.40;2.13;;;6.80;99.90;;;;;;6148331;23;20056;-35
2023/12/20 05:11:52;;;;;;;15.27;2.17;;;6.90;99.90;;;;;;6146533;23;20399;-35
2023/12/20 05:14:17;;;;;;;14.52;2.50;;;6.90;99.90;;;;;;6148321;23;20493;-35
2023/12/20 05:16:43;;;;;;;11.80;2.13;;;6.90;99.90;;;;;;6146870;23;20014;-35
2023/12/20 05:19:08;;;;;;;17.23;2.53;;;7.00;99.90;;;;;;6147511;23;20021;-35
2023/12/20 05:21:34;;;;;;;15.07;2.38;;;7.00;99.90;;;;;;6148364;23;20033;-36
2023/12/20 05:24:00;;;;;;;19.38;3.25;;;7.00;99.90;;;;;;6147183;23;20401;-35
2023/12/20 05:26:26;;;;;;;16.77;2.85;;;7.00;99.90;;;;;;6146709;23;20014;-34
2023/12/20 05:28:52;;;;;;;11.80;2.08;;;7.00;99.90;;;;;;6148222;23;20025;-33
2023/12/20 05:31:18;;;;;;;16.75;2.88;;;7.00;99.90;;;;;;6148044;23;20106;-36
2023/12/20 05:33:43;;;;;;;13.00;2.22;;;7.10;99.90;;;;;;6147555;23;20045;-36
2023/12/20 05:36:11;;;;;;;18.33;2.50;;;7.10;99.90;;;;;;6148142;23;20032;-34
2023/12/20 05:38:37;;;;;;;15.65;2.35;;;7.10;99.90;;;;;;6148032;23;20022;-34
2023/12/20 05:41:03;;;;;;;18.25;2.20;;;7.10;99.90;;;;;;6147362;23;20412;-35
2023/12/20 05:43:29;;;;;;;14.38;3.15;;;7.10;99.90;;;;;;6147992;23;20453;-35
2023/12/20 05:45:54;;;;;;;18.40;2.70;;;7.10;99.90;;;;;;6146565;23;20073;-35
2023/12/20 05:48:20;;;;;;;14.15;2.92;;;7.10;99.90;;;;;;6148825;23;20017;-35
2023/12/20 05:50:46;;;;;;;19.85;2.33;;;7.10;99.90;;;;;;6148202;23;20045;-36
2023/12/20 05:53:11;;;;;;;15.98;2.20;;;7.10;99.90;;;;;;6146180;23;20025;-34
2023/12/20 05:55:37;;;;;;;11.77;1.67;;;7.10;99.90;;;;;;6148455;23;20457;-35
2023/12/20 05:58:03;;;;;;;16.33;2.10;;;7.10;99.90;;;;;;6146113;23;20468;-34
2023/12/20 06:00:28;;;;;;;15.00;2.50;;;7.10;99.90;;;;;;6146484;23;20100;-35
2023/12/20 06:02:54;;;;;;;16.20;2.65;;;7.10;99.90;;;;;;6147335;23;20096;-36
2023/12/20 06:05:20;;;;;;;22.02;2.08;;;7.10;99.90;;;;;;6148262;23;20119;-36
2023/12/20 06:07:48;;;;;;;15.18;2.92;;;7.10;99.90;;;;;;6150015;23;20032;-35
2023/12/20 06:10:14;;;;;;;15.40;2.55;;;7.10;99.90;;;;;;6148292;23;20100;-35
2023/12/20 06:12:39;;;;;;;13.15;1.90;;;7.10;99.90;;;;;;6147462;23;20049;-35
2023/12/20 06:15:05;;;;;;;15.43;2.83;;;7.20;99.90;;;;;;6148886;23;20025;-35
2023/12/20 06:17:31;;;;;;;14.80;2.55;;;7.20;99.90;;;;;;6148720;23;20470;-35
2023/12/20 06:19:57;;;;;;;19.00;2.35;;;7.20;99.90;;;;;;6149359;23;20032;-36
2023/12/20 06:22:23;;;;;;;14.45;2.28;;;7.20;99.90;;;;;;6148357;23;20017;-36
2023/12/20 06:24:49;;;;;;;13.43;2.33;;;7.30;99.90;;;;;;6148435;23;20473;-34
2023/12/20 06:27:14;;;;;;;14.15;2.25;;;7.30;99.90;;;;;;6148206;23;20071;-34
2023/12/20 06:29:41;;;;;;;12.88;2.08;;;7.30;99.90;;;;;;6148551;23;20036;-34
2023/12/20 06:32:07;;;;;;;11.90;2.03;;;7.40;99.90;;;;;;6147469;23;20021;-35
2023/12/20 06:34:32;;;;;;;12.95;2.25;;;7.40;99.90;;;;;;6149960;23;20014;-34
2023/12/20 06:36:58;;;;;;;13.10;2.40;;;7.40;99.90;;;;;;6147769;23;20020;-34
2023/12/20 06:39:24;;;;;;;11.90;2.10;;;7.30;99.90;;;;;;6147382;23;20031;-34
2023/12/20 06:41:49;;;;;;;17.55;1.77;;;7.30;99.90;;;;;;6147895;23;20044;-34
2023/12/20 06:44:15;;;;;;;13.88;2.50;;;7.30;99.90;;;;;;6146480;23;20044;-35
2023/12/20 06:46:41;;;;;;;14.45;2.63;;;7.30;99.90;;;;;;6149745;23;20402;-35
2023/12/20 06:49:07;;;;;;;14.48;2.55;;;7.30;99.90;;;;;;6148709;23;20477;-35
2023/12/20 06:51:32;;;;;;;16.60;2.08;;;7.30;99.90;;;;;;6148985;23;20025;-35
2023/12/20 06:53:58;;;;;;;16.35;2.75;;;7.30;99.90;;;;;;6148927;23;20021;-35
2023/12/20 06:56:24;;;;;;;11.57;1.98;;;7.20;99.90;;;;;;6146930;23;20017;-36
2023/12/20 06:58:50;;;;;;;13.57;3.00;;;7.20;99.90;;;;;;6147588;23;20343;-36
2023/12/20 07:01:16;;;;;;;17.80;2.28;;;7.20;99.90;;;;;;6147482;23;20476;-34
2023/12/20 07:03:41;;;;;;;11.77;1.98;;;7.30;99.90;;;;;;6148253;23;20029;-36
2023/12/20 07:06:08;;;;;;;10.95;2.17;;;7.30;99.90;;;;;;6147962;23;20036;-34
2023/12/20 07:08:34;;;;;;;15.30;2.15;;;7.30;99.90;;;;;;6147035;23;20045;-35
2023/12/20 07:10:59;;;;;;;15.10;2.58;;;7.30;99.90;;;;;;6147547;23;20044;-35
2023/12/20 07:13:25;;;;;;;12.55;2.47;;;7.30;99.90;;;;;;6147996;23;20025;-36
2023/12/20 07:15:50;;;;;;;13.27;2.15;;;7.30;99.90;;;;;;6148113;23;20088;-36
2023/12/20 07:18:16;;;;;;;21.63;2.55;;;7.30;99.90;;;;;;6147458;23;20025;-35
2023/12/20 07:20:43;;;;;;;12.90;2.97;;;7.30;99.90;;;;;;6147909;23;20481;-36
2023/12/20 07:23:08;;;;;;;19.05;2.35;;;7.30;99.90;;;;;;6148666;23;20022;-35
2023/12/20 07:25:34;;;;;;;13.02;2.22;;;7.30;99.90;;;;;;6149161;23;20428;-36
2023/12/20 07:28:00;;;;;;;13.13;2.88;;;7.30;99.90;;;;;;6148134;23;20017;-36
2023/12/20 07:30:26;;;;;;;20.85;2.67;;;7.30;99.90;;;;;;6147847;23;20036;-36
2023/12/20 07:32:52;;;;;;;16.50;2.60;;;7.30;99.90;;;;;;6148471;23;20036;-35
2023/12/20 07:35:18;;;;;;;12.60;2.65;;;7.30;99.90;;;;;;6148106;23;20457;-35
2023/12/20 07:37:44;;;;;;;14.35;2.22;;;7.40;99.90;;;;;;6148587;23;20052;-35
2023/12/20 07:40:10;;;;;;;13.18;2.33;;;7.40;99.90;;;;;;6149104;23;20087;-35
2023/12/20 07:42:36;;;;;;;15.95;2.72;;;7.30;99.90;;;;;;6149716;23;20436;-35
2023/12/20 07:45:03;;;;;;;17.55;2.25;;;7.40;99.90;;;;;;6146950;23;20400;-35
2023/12/20 07:47:29;;;;;;;11.18;2.00;;;7.40;99.90;;;;;;6149221;23;20017;-35
2023/12/20 07:49:54;;;;;;;14.10;2.28;;;7.40;99.90;;;;;;6172108;23;20025;-35
2023/12/20 07:52:22;;;;;;;14.48;2.20;;;7.50;99.90;;;;;;6148045;23;20028;-35
2023/12/20 07:54:48;;;;;;;13.70;2.40;;;7.50;99.90;;;;;;6149021;23;20473;-35
2023/12/20 07:57:13;;;;;;;14.88;1.83;;;7.50;99.90;;;;;;6145925;23;20056;-35
2023/12/20 07:59:39;;;;;;;16.90;3.00;;;7.50;99.90;;;;;;6148411;23;20018;-35
2023/12/20 08:02:06;;;;;;;20.15;3.10;;;7.60;99.90;;;;;;6147125;23;20414;-35
2023/12/20 08:04:32;;;;;;;8.65;1.90;;;7.60;99.90;;;;;;6148618;23;20017;-35
2023/12/20 08:06:58;;;;;;;13.23;2.50;;;7.70;99.90;;;;;;6145942;23;20014;-35
2023/12/20 08:09:24;;;;;;;15.43;2.67;;;7.70;99.90;;;;;;6148222;23;20029;-35
2023/12/20 08:11:49;;;;;;;18.55;3.50;;;7.70;99.90;;;;;;6146452;23;20017;-35
2023/12/20 08:14:16;;;;;;;15.93;2.70;;;7.70;99.90;;;;;;6143709;23;20454;-34
2023/12/20 08:16:41;;;;;;;13.25;2.00;;;7.70;99.90;;;;;;6147971;23;20056;-35
2023/12/20 08:19:07;;;;;;;14.63;2.10;;;7.70;99.90;;;;;;6148474;23;20023;-34
2023/12/20 08:21:34;;;;;;;15.30;2.38;;;7.80;99.90;;;;;;6146924;23;20014;-34
2023/12/20 08:24:00;;;;;;;13.88;2.17;;;7.80;99.90;;;;;;6148946;23;20017;-35
2023/12/20 08:26:26;;;;;;;18.48;2.70;;;7.80;99.90;;;;;;6146491;23;20017;-36
2023/12/20 08:28:52;;;;;;;16.67;2.95;;;7.80;99.90;;;;;;6148916;23;20021;-37
2023/12/20 08:31:18;;;;;;;16.63;2.42;;;7.90;99.90;;;;;;6146594;23;20350;-35
2023/12/20 08:33:45;;;;;;;22.02;3.53;;;7.90;99.90;;;;;;6147873;23;20492;-35
2023/12/20 08:36:11;;;;;;;15.00;2.42;;;7.90;99.90;;;;;;6148128;23;20065;-34
2023/12/20 08:38:37;;;;;;;17.58;2.05;;;8.00;99.90;;;;;;6146793;23;20088;-36
2023/12/20 08:41:05;;;;;;;15.38;2.60;;;8.00;99.90;;;;;;6171166;23;20048;-36
2023/12/20 08:43:40;;;;;;;8.98;1.88;;;8.00;99.90;;;;;;6146877;23;20449;-36
2023/12/20 08:46:06;;;;;;;13.43;2.40;;;8.00;99.90;;;;;;6146933;23;20022;-34
2023/12/20 08:48:31;;;;;;;9.70;1.80;;;8.00;99.90;;;;;;6146403;23;20080;-35
2023/12/20 08:50:57;;;;;;;19.63;3.47;;;8.00;99.90;;;;;;6147011;23;20025;-34
2023/12/20 08:53:23;;;;;;;13.38;1.77;;;8.00;99.90;;;;;;6143228;23;20045;-34
2023/12/20 08:55:48;;;;;;;11.88;2.03;;;8.00;99.90;;;;;;6148584;23;20024;-35
2023/12/20 08:58:14;;;;;;;12.73;1.73;;;8.00;99.90;;;;;;6147177;23;20466;-34
2023/12/20 09:00:40;;;;;;;19.73;3.33;;;8.00;99.90;;;;;;6148156;23;20017;-35
2023/12/20 09:03:06;;;;;;;11.68;2.25;;;8.00;99.90;;;;;;6148017;23;20024;-35
2023/12/20 09:05:31;;;;;;;9.27;1.75;;;8.00;99.90;;;;;;6147320;23;20697;-35
2023/12/20 09:07:57;;;;;;;13.85;2.30;;;8.00;99.90;;;;;;6147879;23;20024;-39
2023/12/20 09:10:23;;;;;;;15.88;2.53;;;8.00;99.90;;;;;;6145585;23;20054;-35
2023/12/20 09:12:50;;;;;;;14.20;2.08;;;8.10;99.90;;;;;;6147142;23;20028;-36
2023/12/20 09:15:16;;;;;;;16.35;3.20;;;8.10;99.90;;;;;;6147563;23;20024;-35
2023/12/20 09:17:41;;;;;;;14.65;2.20;;;8.10;99.90;;;;;;6148788;23;20583;-35
2023/12/20 09:20:08;;;;;;;12.48;2.58;;;8.10;99.90;;;;;;6150229;23;20033;-35
2023/12/20 09:22:34;;;;;;;14.80;1.85;;;8.10;99.90;;;;;;6146740;23;20485;-35
2023/12/20 09:25:01;;;;;;;13.77;2.38;;;8.10;99.90;;;;;;6147501;23;20026;-35
2023/12/20 09:27:27;;;;;;;12.68;2.10;;;8.10;99.90;;;;;;6144469;23;20021;-35
2023/12/20 09:29:53;;;;;;;19.55;2.58;;;8.10;99.90;;;;;;6146108;23;20338;-35
2023/12/20 09:32:20;;;;;;;16.98;2.58;;;8.10;99.90;;;;;;6145702;23;20021;-36
2023/12/20 09:34:47;;;;;;;15.95;2.63;;;8.10;99.90;;;;;;6144774;23;20024;-37
2023/12/20 09:37:13;;;;;;;10.90;2.08;;;8.10;99.90;;;;;;6148575;23;20072;-35
2023/12/20 09:39:39;;;;;;;13.88;2.33;;;8.10;99.90;;;;;;6148362;23;20029;-36
2023/12/20 09:42:06;;;;;;;9.73;1.58;;;8.20;99.90;;;;;;6146742;23;20422;-36
2023/12/20 09:44:36;;;;;;;17.38;2.67;;;8.40;99.90;;;;;;6145883;23;20022;-35
2023/12/20 09:47:05;;;;;;;14.63;2.50;;;8.40;99.90;;;;;;6149263;23;20357;-36
2023/12/20 09:49:32;;;;;;;14.50;1.90;;;8.50;99.90;;;;;;6146735;23;20066;-35
2023/12/20 09:51:59;;;;;;;13.75;2.47;;;8.50;99.90;;;;;;6148238;23;20029;-36
2023/12/20 09:54:26;;;;;;;10.45;2.30;;;8.50;99.90;;;;;;6148422;23;20028;-35
2023/12/20 09:56:52;;;;;;;13.73;2.03;;;8.60;99.90;;;;;;6148565;23;20528;-36
2023/12/20 09:59:18;;;;;;;18.20;3.08;;;8.60;99.90;;;;;;6147491;23;20014;-35
2023/12/20 10:01:44;;;;;;;13.20;2.22;;;8.60;99.90;;;;;;6149947;23;20806;-36
2023/12/20 10:04:59;;;;;;;10.93;1.80;;;8.60;99.90;;;;;;6144563;23;20033;-35
2023/12/20 10:08:14;;;;;;;15.18;2.45;;;8.60;99.90;;;;;;6141073;23;20009;-35
2023/12/20 10:11:30;;;;;;;11.70;1.55;;;8.40;99.90;;;;;;6136418;23;20053;-34
2023/12/20 10:14:45;;;;;;;7.20;1.17;;;8.10;99.90;;;;;;6137878;23;20021;-35
2023/12/20 10:18:02;;;;;;;8.63;0.88;;;7.30;99.90;;;;;;6136967;23;20017;-36
2023/12/20 10:21:18;;;;;;;6.70;1.00;;;6.90;99.90;;;;;;6138587;23;20022;-35
2023/12/20 10:24:34;;;;;;;9.60;1.10;;;6.70;99.90;;;;;;6138378;23;20021;-35
2023/12/20 14:58:37;;;;;;;11.88;1.65;;;7.90;99.90;;;;;;4994126;27;20937;-82
2023/12/20 15:01:03;;;;;;;8.52;1.45;;;7.90;99.90;;;;;;4983655;28;20046;-83
2023/12/20 15:03:29;;;;;;;10.48;1.40;;;7.90;99.90;;;;;;4965506;28;20092;-82
2023/12/20 15:05:58;;;;;;;10.27;1.58;;;7.90;99.90;;;;;;4979007;28;20038;-83
2023/12/20 15:08:25;;;;;;;13.40;1.98;;;7.90;99.90;;;;;;4969251;28;20081;-83
2023/12/20 15:10:51;;;;;;;10.32;1.27;;;7.90;99.90;;;;;;4978838;28;20137;-82
2023/12/20 15:13:16;;;;;;;14.05;2.83;;;7.90;99.90;;;;;;4947201;28;20047;-82
2023/12/20 15:15:42;;;;;;;16.08;1.65;;;7.90;99.90;;;;;;4992005;28;20048;-82
2023/12/20 15:18:11;;;;;;;15.20;1.70;;;7.90;99.90;;;;;;4976028;28;20054;-83
2023/12/20 15:20:36;;;;;;;16.45;2.03;;;7.80;99.90;;;;;;4986485;28;20063;-83
2023/12/20 15:23:07;;;;;;;14.68;2.47;;;7.80;99.90;;;;;;5009300;23;20133;-35
2023/12/20 15:25:33;;;;;;;14.02;2.60;;;7.80;99.90;;;;;;4983783;28;20576;-35
2023/12/20 15:27:59;;;;;;;12.85;1.60;;;7.80;99.90;;;;;;4971720;28;20121;-35
2023/12/20 15:30:25;;;;;;;13.80;1.92;;;7.70;99.90;;;;;;4973181;28;20063;-35
2023/12/20 15:32:52;;;;;;;18.77;1.95;;;7.70;99.90;;;;;;4981752;28;20048;-35
2023/12/20 15:35:17;;;;;;;17.38;2.35;;;7.70;99.90;;;;;;4984690;28;20513;-35
2023/12/20 15:37:43;;;;;;;10.15;1.42;;;7.70;99.90;;;;;;4979277;28;20050;-35
2023/12/20 15:40:10;;;;;;;11.18;1.52;;;7.60;99.90;;;;;;4980200;28;20409;-35
2023/12/20 15:42:38;;;;;;;14.43;2.17;;;7.60;99.90;;;;;;4978293;28;20501;-35
2023/12/20 15:45:05;;;;;;;10.63;2.17;;;7.70;99.90;;;;;;4977887;28;20061;-35
2023/12/20 15:47:30;;;;;;;12.05;2.03;;;7.70;99.90;;;;;;4984753;28;20050;-34
2023/12/20 15:49:57;;;;;;;20.90;2.60;;;7.70;99.90;;;;;;4978976;28;20489;-35
2023/12/20 15:52:23;;;;;;;11.73;1.73;;;7.70;99.90;;;;;;4977649;28;20329;-35
2023/12/20 15:54:49;;;;;;;10.88;1.50;;;7.70;99.90;;;;;;4978657;28;20552;-35
2023/12/20 15:57:17;;;;;;;9.50;1.80;;;7.70;99.90;;;;;;4980440;28;20508;-35
2023/12/20 15:59:43;;;;;;;12.73;1.77;;;7.70;99.90;;;;;;4965188;28;20593;-35
2023/12/20 16:02:09;;;;;;;14.82;1.70;;;7.70;99.90;;;;;;5032966;22;20065;-83
2023/12/20 16:04:36;;;;;;;15.93;2.13;;;7.70;99.90;;;;;;4988685;28;20491;-81
2023/12/20 16:07:03;;;;;;;15.65;2.95;;;7.70;99.90;;;;;;5003042;28;20061;-80
2023/12/20 16:09:29;;;;;;;14.20;2.28;;;7.70;99.90;;;;;;5051207;22;20073;-35
2023/12/20 16:11:54;;;;;;;14.75;2.00;;;7.70;99.90;;;;;;4984216;28;20058;-35
2023/12/20 16:14:20;;;;;;;18.98;2.30;;;7.70;99.90;;;;;;4987371;28;20058;-35
2023/12/20 16:16:49;;;;;;;12.88;2.38;;;7.70;99.90;;;;;;4988530;28;20060;-36
2023/12/20 16:19:15;;;;;;;11.77;1.65;;;7.70;99.90;;;;;;4984563;28;20062;-35
2023/12/20 16:21:40;;;;;;;13.95;1.95;;;7.70;99.90;;;;;;4983855;28;20047;-35
2023/12/20 16:24:06;;;;;;;13.45;2.22;;;7.70;99.90;;;;;;4981540;28;20081;-34
2023/12/20 16:26:32;;;;;;;10.32;1.63;;;7.70;99.90;;;;;;4989030;28;20073;-36
2023/12/20 16:28:58;;;;;;;15.75;2.28;;;7.80;99.90;;;;;;5003784;28;20058;-36
2023/12/20 16:31:23;;;;;;;14.77;2.03;;;7.80;99.90;;;;;;4988994;28;20077;-35
2023/12/20 16:33:49;;;;;;;12.73;2.60;;;7.80;99.90;;;;;;4984714;28;20129;-34
2023/12/20 16:36:15;;;;;;;14.10;2.28;;;7.80;99.90;;;;;;4986578;28;20050;-35
2023/12/20 16:38:41;;;;;;;6.53;1.60;;;7.80;99.90;;;;;;4990508;28;20058;-35
2023/12/20 16:41:06;;;;;;;13.45;1.90;;;7.80;99.90;;;;;;4989431;28;20417;-35
2023/12/20 16:43:32;;;;;;;14.52;2.35;;;7.80;99.90;;;;;;4987994;28;20116;-36
2023/12/20 16:45:58;;;;;;;11.68;1.58;;;7.80;99.90;;;;;;4985546;28;20073;-36
2023/12/20 16:48:23;;;;;;;20.23;1.98;;;7.80;99.90;;;;;;4982577;28;20053;-36
2023/12/20 16:50:49;;;;;;;13.75;2.10;;;7.80;99.90;;;;;;4984991;28;20073;-36
2023/12/20 16:53:18;;;;;;;16.10;1.70;;;7.80;99.90;;;;;;4987655;28;20160;-36
2023/12/20 16:55:44;;;;;;;14.93;1.42;;;7.90;99.90;;;;;;4983822;28;20401;-36
2023/12/20 16:58:11;;;;;;;12.48;2.00;;;7.90;99.90;;;;;;4987607;28;20038;-36
2023/12/20 17:00:37;;;;;;;11.85;1.60;;;7.80;99.90;;;;;;4986574;28;20065;-36
2023/12/20 17:03:03;;;;;;;10.93;1.65;;;7.80;99.90;;;;;;4983201;28;20054;-36
2023/12/20 17:05:29;;;;;;;14.68;2.30;;;7.80;99.90;;;;;;4987017;28;20050;-36
2023/12/20 17:07:54;;;;;;;13.73;2.30;;;7.80;99.90;;;;;;4988563;28;20069;-36
2023/12/20 17:10:21;;;;;;;11.70;2.20;;;7.80;99.90;;;;;;4948148;28;20081;-36
2023/12/20 17:12:47;;;;;;;13.48;2.40;;;7.80;99.90;;;;;;4950098;28;20047;-37
2023/12/20 17:15:12;;;;;;;13.18;2.10;;;7.80;99.90;;;;;;4948770;28;20413;-35
2023/12/20 17:17:38;;;;;;;14.30;2.72;;;7.80;99.90;;;;;;4948932;28;20474;-36